sensor_id;sensor_type;location;lat;lon;timestamp;pressure;altitude;pressure_sealevel;temperature;humidity
76108;BME280;64834;52.516;10.528;2023-03-01T00:01:45;102595.03;;;-3.47;83.64
76108;BME280;64834;52.516;10.528;2023-03-01T00:04:11;102600.34;;;-3.46;83.99
76108;BME280;64834;52.516;10.528;2023-03-01T00:06:36;102597.03;;;-3.58;84.04
76108;BME280;64834;52.516;10.528;2023-03-01T00:09:02;102596.31;;;-3.57;84.01
76108;BME280;64834;52.516;10.528;2023-03-01T00:11:30;102599.06;;;-3.55;83.70
76108;BME280;64834;52.516;10.528;2023-03-01T00:13:59;102605.16;;;-3.60;83.42
76108;BME280;64834;52.516;10.528;2023-03-01T00:16:31;102598.25;;;-3.67;83.71
76108;BME280;64834;52.516;10.528;2023-03-01T00:18:58;102595.53;;;-3.74;84.03
76108;BME280;64834;52.516;10.528;2023-03-01T00:21:24;102602.13;;;-3.82;83.96
76108;BME280;64834;52.516;10.528;2023-03-01T00:23:50;102595.22;;;-3.64;84.11
76108;BME280;64834;52.516;10.528;2023-03-01T00:26:18;102594.09;;;-3.48;83.30
76108;BME280;64834;52.516;10.528;2023-03-01T00:28:45;102595.59;;;-3.56;83.12
76108;BME280;64834;52.516;10.528;2023-03-01T00:31:16;102601.78;;;-3.72;83.32
76108;BME280;64834;52.516;10.528;2023-03-01T00:33:42;102598.69;;;-3.88;84.05
76108;BME280;64834;52.516;10.528;2023-03-01T00:36:08;102588.81;;;-4.03;84.56
76108;BME280;64834;52.516;10.528;2023-03-01T00:38:38;102602.09;;;-4.05;85.65
76108;BME280;64834;52.516;10.528;2023-03-01T00:41:06;102594.69;;;-4.10;85.30
76108;BME280;64834;52.516;10.528;2023-03-01T00:43:31;102602.69;;;-4.19;85.63
76108;BME280;64834;52.516;10.528;2023-03-01T00:46:05;102605.84;;;-4.09;86.22
76108;BME280;64834;52.516;10.528;2023-03-01T00:48:31;102602.13;;;-3.82;85.29
76108;BME280;64834;52.516;10.528;2023-03-01T00:50:57;102593.63;;;-3.93;85.09
76108;BME280;64834;52.516;10.528;2023-03-01T00:53:22;102595.88;;;-4.08;85.55
76108;BME280;64834;52.516;10.528;2023-03-01T00:55:47;102595.44;;;-4.16;84.96
76108;BME280;64834;52.516;10.528;2023-03-01T00:58:13;102585.75;;;-4.24;85.86
76108;BME280;64834;52.516;10.528;2023-03-01T01:00:38;102590.66;;;-4.26;86.41
76108;BME280;64834;52.516;10.528;2023-03-01T01:03:03;102593.94;;;-4.27;86.87
76108;BME280;64834;52.516;10.528;2023-03-01T01:05:29;102591.78;;;-4.24;86.90
76108;BME280;64834;52.516;10.528;2023-03-01T01:07:54;102588.53;;;-4.23;85.67
76108;BME280;64834;52.516;10.528;2023-03-01T01:10:19;102591.78;;;-4.24;85.86
76108;BME280;64834;52.516;10.528;2023-03-01T01:12:45;102590.50;;;-4.33;85.55
76108;BME280;64834;52.516;10.528;2023-03-01T01:15:10;102583.81;;;-4.44;86.48
76108;BME280;64834;52.516;10.528;2023-03-01T01:17:38;102582.00;;;-4.50;86.67
76108;BME280;64834;52.516;10.528;2023-03-01T01:20:03;102573.22;;;-4.52;86.49
76108;BME280;64834;52.516;10.528;2023-03-01T01:22:29;102575.06;;;-4.51;86.51
76108;BME280;64834;52.516;10.528;2023-03-01T01:24:54;102570.88;;;-4.51;86.53
76108;BME280;64834;52.516;10.528;2023-03-01T01:27:19;102578.03;;;-4.48;85.87
76108;BME280;64834;52.516;10.528;2023-03-01T01:29:45;102580.19;;;-4.57;86.01
76108;BME280;64834;52.516;10.528;2023-03-01T01:32:10;102581.19;;;-4.68;86.65
76108;BME280;64834;52.516;10.528;2023-03-01T01:34:35;102574.03;;;-4.70;87.19
76108;BME280;64834;52.516;10.528;2023-03-01T01:37:01;102572.78;;;-4.61;87.45
76108;BME280;64834;52.516;10.528;2023-03-01T01:39:27;102574.25;;;-4.69;87.32
76108;BME280;64834;52.516;10.528;2023-03-01T01:41:53;102576.47;;;-4.59;88.10
76108;BME280;64834;52.516;10.528;2023-03-01T01:44:24;102569.53;;;-4.60;87.69
76108;BME280;64834;52.516;10.528;2023-03-01T01:46:53;102579.34;;;-4.33;86.87
76108;BME280;64834;52.516;10.528;2023-03-01T01:49:24;102573.53;;;-4.32;86.10
76108;BME280;64834;52.516;10.528;2023-03-01T01:51:55;102578.03;;;-4.48;86.59
76108;BME280;64834;52.516;10.528;2023-03-01T01:57:30;102561.47;;;-4.69;87.08
76108;BME280;64834;52.516;10.528;2023-03-01T01:59:59;102556.84;;;-4.71;87.53
76108;BME280;64834;52.516;10.528;2023-03-01T02:02:26;102562.63;;;-4.72;86.85
76108;BME280;64834;52.516;10.528;2023-03-01T02:04:58;102568.66;;;-4.72;87.19
76108;BME280;64834;52.516;10.528;2023-03-01T02:07:29;102560.16;;;-4.48;87.44
76108;BME280;64834;52.516;10.528;2023-03-01T02:09:55;102563.00;;;-4.28;85.98
76108;BME280;64834;52.516;10.528;2023-03-01T02:12:23;102552.16;;;-4.33;86.05
76108;BME280;64834;52.516;10.528;2023-03-01T02:14:49;102559.91;;;-4.44;86.14
76108;BME280;64834;52.516;10.528;2023-03-01T02:17:15;102557.25;;;-4.63;86.22
76108;BME280;64834;52.516;10.528;2023-03-01T02:20:03;102552.41;;;-4.72;86.81
76108;BME280;64834;52.516;10.528;2023-03-01T02:22:33;102548.34;;;-4.83;87.21
76108;BME280;64834;52.516;10.528;2023-03-01T02:28:00;102535.38;;;-4.90;87.18
76108;BME280;64834;52.516;10.528;2023-03-01T02:30:28;102535.63;;;-4.94;87.10
76108;BME280;64834;52.516;10.528;2023-03-01T02:32:55;102538.44;;;-4.98;86.96
76108;BME280;64834;52.516;10.528;2023-03-01T02:35:29;102540.03;;;-4.93;87.49
76108;BME280;64834;52.516;10.528;2023-03-01T02:37:55;102522.66;;;-4.96;88.01
76108;BME280;64834;52.516;10.528;2023-03-01T02:40:22;102512.47;;;-5.01;89.38
76108;BME280;64834;52.516;10.528;2023-03-01T02:42:52;102509.16;;;-4.89;89.41
76108;BME280;64834;52.516;10.528;2023-03-01T02:45:18;102500.31;;;-4.91;88.07
76108;BME280;64834;52.516;10.528;2023-03-01T02:47:44;102499.19;;;-4.93;88.06
76108;BME280;64834;52.516;10.528;2023-03-01T02:50:22;102494.00;;;-4.82;87.64
76108;BME280;64834;52.516;10.528;2023-03-01T02:53:00;102497.03;;;-4.84;86.93
76108;BME280;64834;52.516;10.528;2023-03-01T02:55:28;102489.47;;;-4.96;86.86
76108;BME280;64834;52.516;10.528;2023-03-01T02:57:55;102489.75;;;-5.05;87.33
76108;BME280;64834;52.516;10.528;2023-03-01T03:00:26;102481.41;;;-5.10;87.85
76108;BME280;64834;52.516;10.528;2023-03-01T03:02:54;102493.03;;;-5.12;87.69
76108;BME280;64834;52.516;10.528;2023-03-01T03:05:30;102488.13;;;-5.05;87.18
76108;BME280;64834;52.516;10.528;2023-03-01T03:07:56;102485.78;;;-5.03;86.85
76108;BME280;64834;52.516;10.528;2023-03-01T03:10:28;102486.38;;;-4.88;86.80
76108;BME280;64834;52.516;10.528;2023-03-01T03:13:02;102484.97;;;-4.56;86.08
76108;BME280;64834;52.516;10.528;2023-03-01T03:15:28;102486.41;;;-4.58;86.31
76108;BME280;64834;52.516;10.528;2023-03-01T03:17:54;102490.78;;;-4.86;86.76
76108;BME280;64834;52.516;10.528;2023-03-01T03:20:22;102493.19;;;-4.99;87.16
76108;BME280;64834;52.516;10.528;2023-03-01T03:22:50;102486.09;;;-5.13;87.49
76108;BME280;64834;52.516;10.528;2023-03-01T03:25:16;102487.72;;;-5.13;87.72
76108;BME280;64834;52.516;10.528;2023-03-01T03:27:44;102491.50;;;-4.88;86.44
76108;BME280;64834;52.516;10.528;2023-03-01T03:30:12;102487.94;;;-4.77;85.10
76108;BME280;64834;52.516;10.528;2023-03-01T03:32:39;102484.03;;;-4.86;85.16
76108;BME280;64834;52.516;10.528;2023-03-01T03:35:05;102481.16;;;-5.06;85.62
76108;BME280;64834;52.516;10.528;2023-03-01T03:37:37;102488.47;;;-5.26;86.26
76108;BME280;64834;52.516;10.528;2023-03-01T03:40:21;102485.25;;;-5.30;86.97
76108;BME280;64834;52.516;10.528;2023-03-01T03:42:46;102481.81;;;-5.36;86.96
76108;BME280;64834;52.516;10.528;2023-03-01T03:45:13;102483.19;;;-5.33;87.23
76108;BME280;64834;52.516;10.528;2023-03-01T03:47:38;102481.28;;;-5.28;86.76
76108;BME280;64834;52.516;10.528;2023-03-01T03:50:03;102477.13;;;-5.28;86.48
76108;BME280;64834;52.516;10.528;2023-03-01T03:52:29;102476.47;;;-5.38;86.30
76108;BME280;64834;52.516;10.528;2023-03-01T03:54:54;102477.41;;;-5.37;86.66
76108;BME280;64834;52.516;10.528;2023-03-01T03:57:19;102486.03;;;-5.48;86.60
76108;BME280;64834;52.516;10.528;2023-03-01T03:59:46;102484.19;;;-5.49;87.24
76108;BME280;64834;52.516;10.528;2023-03-01T04:02:11;102498.66;;;-5.20;86.44
76108;BME280;64834;52.516;10.528;2023-03-01T04:04:37;102496.41;;;-5.35;86.58
76108;BME280;64834;52.516;10.528;2023-03-01T04:07:02;102498.31;;;-5.46;86.95
76108;BME280;64834;52.516;10.528;2023-03-01T04:09:27;102505.47;;;-5.37;87.38
76108;BME280;64834;52.516;10.528;2023-03-01T04:11:55;102503.75;;;-5.20;87.57
76108;BME280;64834;52.516;10.528;2023-03-01T04:14:20;102499.41;;;-5.32;88.19
76108;BME280;64834;52.516;10.528;2023-03-01T04:16:45;102505.59;;;-5.19;87.67
76108;BME280;64834;52.516;10.528;2023-03-01T04:19:11;102496.13;;;-5.26;88.88
76108;BME280;64834;52.516;10.528;2023-03-01T04:21:36;102492.78;;;-5.08;88.02
76108;BME280;64834;52.516;10.528;2023-03-01T04:24:01;102499.56;;;-5.14;88.46
76108;BME280;64834;52.516;10.528;2023-03-01T04:26:28;102496.34;;;-5.24;89.08
76108;BME280;64834;52.516;10.528;2023-03-01T04:28:54;102500.34;;;-5.32;88.63
76108;BME280;64834;52.516;10.528;2023-03-01T04:31:20;102502.50;;;-5.46;88.64
76108;BME280;64834;52.516;10.528;2023-03-01T04:33:48;102502.06;;;-5.60;89.21
76108;BME280;64834;52.516;10.528;2023-03-01T04:36:17;102491.94;;;-5.72;89.77
76108;BME280;64834;52.516;10.528;2023-03-01T04:38:43;102489.38;;;-5.72;90.22
76108;BME280;64834;52.516;10.528;2023-03-01T04:41:18;102494.34;;;-5.44;90.20
76108;BME280;64834;52.516;10.528;2023-03-01T04:43:44;102495.97;;;-5.38;88.39
76108;BME280;64834;52.516;10.528;2023-03-01T04:46:15;102496.50;;;-5.52;87.84
76108;BME280;64834;52.516;10.528;2023-03-01T04:48:42;102493.47;;;-5.55;88.00
76108;BME280;64834;52.516;10.528;2023-03-01T04:51:08;102487.03;;;-5.64;88.17
76108;BME280;64834;52.516;10.528;2023-03-01T04:53:35;102485.44;;;-5.75;87.89
76108;BME280;64834;52.516;10.528;2023-03-01T04:56:02;102479.44;;;-5.87;87.62
76108;BME280;64834;52.516;10.528;2023-03-01T04:58:27;102474.13;;;-5.88;88.11
76108;BME280;64834;52.516;10.528;2023-03-01T05:00:54;102485.22;;;-5.71;87.98
76108;BME280;64834;52.516;10.528;2023-03-01T05:03:20;102479.13;;;-5.60;87.18
76108;BME280;64834;52.516;10.528;2023-03-01T05:05:48;102481.88;;;-5.53;86.41
76108;BME280;64834;52.516;10.528;2023-03-01T05:08:14;102467.97;;;-5.55;86.88
76108;BME280;64834;52.516;10.528;2023-03-01T05:10:49;102474.44;;;-5.46;86.84
76108;BME280;64834;52.516;10.528;2023-03-01T05:13:15;102470.88;;;-5.30;86.60
76108;BME280;64834;52.516;10.528;2023-03-01T05:15:47;102473.94;;;-5.44;86.39
76108;BME280;64834;52.516;10.528;2023-03-01T05:18:12;102472.06;;;-5.33;86.05
76108;BME280;64834;52.516;10.528;2023-03-01T05:20:38;102477.84;;;-5.34;85.37
76108;BME280;64834;52.516;10.528;2023-03-01T05:23:03;102480.50;;;-5.57;86.32
76108;BME280;64834;52.516;10.528;2023-03-01T05:25:31;102480.56;;;-5.68;86.46
76108;BME280;64834;52.516;10.528;2023-03-01T05:27:58;102469.97;;;-5.88;86.44
76108;BME280;64834;52.516;10.528;2023-03-01T05:30:24;102475.13;;;-5.99;87.04
76108;BME280;64834;52.516;10.528;2023-03-01T05:32:50;102478.59;;;-6.04;87.29
76108;BME280;64834;52.516;10.528;2023-03-01T05:35:21;102471.22;;;-6.08;87.74
76108;BME280;64834;52.516;10.528;2023-03-01T05:37:48;102473.28;;;-6.11;87.75
76108;BME280;64834;52.516;10.528;2023-03-01T05:40:17;102468.81;;;-5.84;87.67
76108;BME280;64834;52.516;10.528;2023-03-01T05:42:48;102475.94;;;-5.76;86.11
76108;BME280;64834;52.516;10.528;2023-03-01T05:45:15;102470.94;;;-5.93;85.99
76108;BME280;64834;52.516;10.528;2023-03-01T05:47:41;102482.06;;;-5.98;86.54
76108;BME280;64834;52.516;10.528;2023-03-01T05:50:14;102474.22;;;-6.11;86.68
76108;BME280;64834;52.516;10.528;2023-03-01T05:52:45;102471.00;;;-6.21;87.11
76108;BME280;64834;52.516;10.528;2023-03-01T05:55:10;102470.53;;;-6.24;88.18
76108;BME280;64834;52.516;10.528;2023-03-01T05:57:36;102467.09;;;-6.36;88.74
76108;BME280;64834;52.516;10.528;2023-03-01T06:00:01;102477.03;;;-6.26;89.94
76108;BME280;64834;52.516;10.528;2023-03-01T06:02:27;102477.25;;;-6.13;89.26
76108;BME280;64834;52.516;10.528;2023-03-01T06:04:52;102465.66;;;-6.11;89.30
76108;BME280;64834;52.516;10.528;2023-03-01T06:07:17;102469.84;;;-6.17;89.05
76108;BME280;64834;52.516;10.528;2023-03-01T06:09:43;102473.31;;;-6.17;89.85
76108;BME280;64834;52.516;10.528;2023-03-01T06:12:08;102466.59;;;-6.16;90.38
76108;BME280;64834;52.516;10.528;2023-03-01T06:14:33;102462.16;;;-6.06;90.42
76108;BME280;64834;52.516;10.528;2023-03-01T06:16:58;102467.63;;;-5.86;88.75
76108;BME280;64834;52.516;10.528;2023-03-01T06:19:24;102469.53;;;-5.91;88.33
76108;BME280;64834;52.516;10.528;2023-03-01T06:21:49;102466.34;;;-6.01;88.43
76108;BME280;64834;52.516;10.528;2023-03-01T06:24:14;102475.47;;;-5.74;87.57
76108;BME280;64834;52.516;10.528;2023-03-01T06:26:40;102473.41;;;-5.82;87.61
76108;BME280;64834;52.516;10.528;2023-03-01T06:29:05;102473.19;;;-5.83;88.03
76108;BME280;64834;52.516;10.528;2023-03-01T06:31:30;102479.91;;;-5.78;88.43
76108;BME280;64834;52.516;10.528;2023-03-01T06:33:56;102475.97;;;-5.82;88.22
76108;BME280;64834;52.516;10.528;2023-03-01T06:36:21;102476.91;;;-5.87;88.37
76108;BME280;64834;52.516;10.528;2023-03-01T06:38:47;102470.88;;;-5.87;88.94
76108;BME280;64834;52.516;10.528;2023-03-01T06:41:12;102482.41;;;-5.73;87.75
76108;BME280;64834;52.516;10.528;2023-03-01T06:43:37;102478.22;;;-5.72;87.71
76108;BME280;64834;52.516;10.528;2023-03-01T06:46:06;102473.38;;;-5.71;88.42
76108;BME280;64834;52.516;10.528;2023-03-01T06:48:32;102469.63;;;-5.61;88.87
76108;BME280;64834;52.516;10.528;2023-03-01T06:50:59;102473.16;;;-5.26;88.18
76108;BME280;64834;52.516;10.528;2023-03-01T06:53:26;102477.91;;;-5.05;87.55
76108;BME280;64834;52.516;10.528;2023-03-01T06:55:57;102471.69;;;-4.77;87.07
76108;BME280;64834;52.516;10.528;2023-03-01T06:58:25;102468.13;;;-4.43;86.68
76108;BME280;64834;52.516;10.528;2023-03-01T07:00:50;102467.38;;;-4.12;85.42
76108;BME280;64834;52.516;10.528;2023-03-01T07:03:15;102460.19;;;-3.54;84.47
76108;BME280;64834;52.516;10.528;2023-03-01T07:05:41;102461.06;;;-2.17;79.54
76108;BME280;64834;52.516;10.528;2023-03-01T07:08:06;102448.91;;;-0.55;73.24
76108;BME280;64834;52.516;10.528;2023-03-01T07:10:31;102445.22;;;0.46;68.31
76108;BME280;64834;52.516;10.528;2023-03-01T07:12:57;102452.72;;;1.07;65.30
76108;BME280;64834;52.516;10.528;2023-03-01T07:15:24;102450.09;;;1.71;63.10
76108;BME280;64834;52.516;10.528;2023-03-01T07:17:49;102445.06;;;2.01;62.12
76108;BME280;64834;52.516;10.528;2023-03-01T07:20:17;102443.75;;;1.98;61.20
76108;BME280;64834;52.516;10.528;2023-03-01T07:22:42;102442.38;;;1.64;62.58
76108;BME280;64834;52.516;10.528;2023-03-01T07:25:09;102442.16;;;1.84;62.73
76108;BME280;64834;52.516;10.528;2023-03-01T07:27:35;102439.81;;;1.64;63.70
76108;BME280;64834;52.516;10.528;2023-03-01T07:30:00;102433.50;;;1.76;63.00
76108;BME280;64834;52.516;10.528;2023-03-01T07:32:26;102439.78;;;1.50;64.22
76108;BME280;64834;52.516;10.528;2023-03-01T07:34:51;102449.56;;;0.88;65.75
76108;BME280;64834;52.516;10.528;2023-03-01T07:37:16;102439.53;;;0.63;67.85
76108;BME280;64834;52.516;10.528;2023-03-01T07:39:42;102432.72;;;0.56;69.31
76108;BME280;64834;52.516;10.528;2023-03-01T07:42:08;102433.50;;;0.69;68.96
76108;BME280;64834;52.516;10.528;2023-03-01T07:44:33;102439.00;;;0.65;69.61
76108;BME280;64834;52.516;10.528;2023-03-01T07:46:59;102444.31;;;0.60;69.75
76108;BME280;64834;52.516;10.528;2023-03-01T07:49:25;102446.91;;;0.60;69.90
76108;BME280;64834;52.516;10.528;2023-03-01T07:51:51;102454.31;;;0.85;70.72
76108;BME280;64834;52.516;10.528;2023-03-01T07:54:16;102442.41;;;1.07;69.32
76108;BME280;64834;52.516;10.528;2023-03-01T07:56:43;102443.88;;;1.33;68.37
76108;BME280;64834;52.516;10.528;2023-03-01T07:59:08;102448.47;;;1.57;69.22
76108;BME280;64834;52.516;10.528;2023-03-01T08:01:34;102436.84;;;1.25;67.85
76108;BME280;64834;52.516;10.528;2023-03-01T08:03:59;102433.38;;;1.03;68.19
76108;BME280;64834;52.516;10.528;2023-03-01T08:06:24;102445.50;;;1.19;68.03
76108;BME280;64834;52.516;10.528;2023-03-01T08:08:50;102442.97;;;1.33;68.69
76108;BME280;64834;52.516;10.528;2023-03-01T08:11:15;102438.47;;;1.75;69.06
76108;BME280;64834;52.516;10.528;2023-03-01T08:13:41;102433.34;;;1.60;67.18
76108;BME280;64834;52.516;10.528;2023-03-01T08:16:10;102439.00;;;1.79;67.83
76108;BME280;64834;52.516;10.528;2023-03-01T08:18:35;102440.53;;;1.56;67.42
76108;BME280;64834;52.516;10.528;2023-03-01T08:21:03;102430.78;;;1.46;68.06
76108;BME280;64834;52.516;10.528;2023-03-01T08:23:28;102432.81;;;1.34;68.23
76108;BME280;64834;52.516;10.528;2023-03-01T08:25:55;102427.59;;;1.63;70.03
76108;BME280;64834;52.516;10.528;2023-03-01T08:28:20;102431.59;;;1.97;69.37
76108;BME280;64834;52.516;10.528;2023-03-01T08:30:46;102421.66;;;2.37;67.17
76108;BME280;64834;52.516;10.528;2023-03-01T08:33:11;102426.69;;;2.65;67.42
76108;BME280;64834;52.516;10.528;2023-03-01T08:35:37;102417.00;;;2.79;64.87
76108;BME280;64834;52.516;10.528;2023-03-01T08:38:02;102412.16;;;2.82;64.69
76108;BME280;64834;52.516;10.528;2023-03-01T08:40:28;102411.44;;;2.76;63.75
76108;BME280;64834;52.516;10.528;2023-03-01T08:42:53;102413.84;;;3.04;65.47
76108;BME280;64834;52.516;10.528;2023-03-01T08:45:18;102406.81;;;3.26;64.31
76108;BME280;64834;52.516;10.528;2023-03-01T08:47:44;102407.72;;;3.27;62.84
76108;BME280;64834;52.516;10.528;2023-03-01T08:50:10;102416.09;;;3.24;62.31
76108;BME280;64834;52.516;10.528;2023-03-01T08:52:35;102411.47;;;3.44;62.52
76108;BME280;64834;52.516;10.528;2023-03-01T08:55:00;102418.59;;;3.31;61.28
76108;BME280;64834;52.516;10.528;2023-03-01T08:57:26;102418.66;;;3.47;62.91
76108;BME280;64834;52.516;10.528;2023-03-01T08:59:52;102426.78;;;3.66;64.12
76108;BME280;64834;52.516;10.528;2023-03-01T09:02:18;102424.41;;;3.99;64.31
76108;BME280;64834;52.516;10.528;2023-03-01T09:04:44;102420.53;;;3.79;61.35
76108;BME280;64834;52.516;10.528;2023-03-01T09:07:10;102429.47;;;3.59;61.25
76108;BME280;64834;52.516;10.528;2023-03-01T09:09:36;102426.47;;;3.78;59.64
76108;BME280;64834;52.516;10.528;2023-03-01T09:12:02;102426.63;;;3.80;62.07
76108;BME280;64834;52.516;10.528;2023-03-01T09:14:27;102421.88;;;3.92;62.44
76108;BME280;64834;52.516;10.528;2023-03-01T09:16:53;102427.25;;;3.77;61.92
76108;BME280;64834;52.516;10.528;2023-03-01T09:19:18;102423.59;;;3.53;62.85
76108;BME280;64834;52.516;10.528;2023-03-01T09:21:44;102419.72;;;3.33;63.70
76108;BME280;64834;52.516;10.528;2023-03-01T09:24:22;102431.53;;;3.54;63.79
76108;BME280;64834;52.516;10.528;2023-03-01T09:26:49;102419.88;;;3.73;63.21
76108;BME280;64834;52.516;10.528;2023-03-01T09:29:15;102419.34;;;3.69;62.05
76108;BME280;64834;52.516;10.528;2023-03-01T09:31:41;102412.41;;;3.61;61.51
76108;BME280;64834;52.516;10.528;2023-03-01T09:34:07;102411.56;;;3.53;62.98
76108;BME280;64834;52.516;10.528;2023-03-01T09:36:34;102416.19;;;3.87;62.43
76108;BME280;64834;52.516;10.528;2023-03-01T09:39:00;102414.78;;;3.98;61.37
76108;BME280;64834;52.516;10.528;2023-03-01T09:41:38;102404.31;;;3.89;60.74
76108;BME280;64834;52.516;10.528;2023-03-01T09:44:21;102399.47;;;4.24;60.16
76108;BME280;64834;52.516;10.528;2023-03-01T09:46:51;102406.19;;;4.22;57.55
76108;BME280;64834;52.516;10.528;2023-03-01T09:49:19;102406.00;;;3.73;58.60
76108;BME280;64834;52.516;10.528;2023-03-01T09:51:54;102403.34;;;3.80;59.07
76108;BME280;64834;52.516;10.528;2023-03-01T09:54:20;102405.75;;;3.78;59.77
76108;BME280;64834;52.516;10.528;2023-03-01T09:59:45;102405.56;;;4.65;58.78
76108;BME280;64834;52.516;10.528;2023-03-01T10:02:37;102410.34;;;4.69;58.04
76108;BME280;64834;52.516;10.528;2023-03-01T10:05:19;102407.41;;;4.90;56.60
76108;BME280;64834;52.516;10.528;2023-03-01T10:08:05;102412.72;;;4.83;54.56
76108;BME280;64834;52.516;10.528;2023-03-01T10:10:36;102405.06;;;4.36;57.57
76108;BME280;64834;52.516;10.528;2023-03-01T10:13:13;102395.28;;;4.73;58.49
76108;BME280;64834;52.516;10.528;2023-03-01T10:15:44;102402.06;;;4.88;54.77
76108;BME280;64834;52.516;10.528;2023-03-01T10:18:17;102403.31;;;4.92;55.50
76108;BME280;64834;52.516;10.528;2023-03-01T10:20:58;102394.56;;;4.83;54.50
76108;BME280;64834;52.516;10.528;2023-03-01T10:23:26;102399.31;;;5.11;56.13
76108;BME280;64834;52.516;10.528;2023-03-01T10:28:29;102392.06;;;5.00;54.02
76108;BME280;64834;52.516;10.528;2023-03-01T10:30:57;102386.28;;;5.03;52.87
76108;BME280;64834;52.516;10.528;2023-03-01T10:33:32;102384.88;;;5.31;54.16
76108;BME280;64834;52.516;10.528;2023-03-01T10:35:59;102390.28;;;5.41;54.05
76108;BME280;64834;52.516;10.528;2023-03-01T10:38:24;102383.75;;;5.71;52.48
76108;BME280;64834;52.516;10.528;2023-03-01T10:40:59;102381.03;;;4.94;52.48
76108;BME280;64834;52.516;10.528;2023-03-01T10:43:30;102384.16;;;5.07;54.49
76108;BME280;64834;52.516;10.528;2023-03-01T10:45:57;102374.22;;;5.36;51.79
76108;BME280;64834;52.516;10.528;2023-03-01T10:48:25;102379.78;;;5.65;49.48
76108;BME280;64834;52.516;10.528;2023-03-01T10:53:29;102366.69;;;5.73;48.43
76108;BME280;64834;52.516;10.528;2023-03-01T10:56:12;102369.91;;;5.87;45.74
76108;BME280;64834;52.516;10.528;2023-03-01T10:58:41;102362.09;;;5.87;46.67
76108;BME280;64834;52.516;10.528;2023-03-01T11:01:35;102367.31;;;5.87;46.12
76108;BME280;64834;52.516;10.528;2023-03-01T11:06:37;102361.84;;;5.93;45.00
76108;BME280;64834;52.516;10.528;2023-03-01T11:09:23;102355.41;;;6.15;45.67
76108;BME280;64834;52.516;10.528;2023-03-01T11:11:54;102352.06;;;6.42;46.57
76108;BME280;64834;52.516;10.528;2023-03-01T11:14:24;102349.75;;;6.19;45.63
76108;BME280;64834;52.516;10.528;2023-03-01T11:17:01;102352.66;;;6.14;44.93
76108;BME280;64834;52.516;10.528;2023-03-01T11:19:27;102349.63;;;5.92;46.48
76108;BME280;64834;52.516;10.528;2023-03-01T11:22:07;102342.06;;;6.47;45.12
76108;BME280;64834;52.516;10.528;2023-03-01T11:24:45;102345.63;;;6.39;42.89
76108;BME280;64834;52.516;10.528;2023-03-01T11:27:25;102349.28;;;6.32;44.75
76108;BME280;64834;52.516;10.528;2023-03-01T11:30:05;102345.28;;;6.53;45.01
76108;BME280;64834;52.516;10.528;2023-03-01T11:35:37;102346.06;;;6.43;44.43
76108;BME280;64834;52.516;10.528;2023-03-01T11:38:22;102345.50;;;6.11;44.05
76108;BME280;64834;52.516;10.528;2023-03-01T11:40:55;102345.44;;;6.46;45.15
76108;BME280;64834;52.516;10.528;2023-03-01T11:43:32;102337.69;;;6.11;43.40
76108;BME280;64834;52.516;10.528;2023-03-01T11:46:19;102330.66;;;6.10;44.40
76108;BME280;64834;52.516;10.528;2023-03-01T11:54:27;102329.34;;;6.67;39.52
76108;BME280;64834;52.516;10.528;2023-03-01T11:57:18;102331.81;;;6.57;41.42
76108;BME280;64834;52.516;10.528;2023-03-01T11:59:54;102318.19;;;6.60;39.70
76108;BME280;64834;52.516;10.528;2023-03-01T12:08:18;102320.63;;;7.03;40.38
76108;BME280;64834;52.516;10.528;2023-03-01T12:10:57;102315.75;;;7.06;41.19
76108;BME280;64834;52.516;10.528;2023-03-01T12:27:29;102297.41;;;6.96;39.95
76108;BME280;64834;52.516;10.528;2023-03-01T12:30:17;102293.53;;;6.73;40.05
76108;BME280;64834;52.516;10.528;2023-03-01T12:32:59;102286.59;;;7.10;39.79
76108;BME280;64834;52.516;10.528;2023-03-01T12:35:54;102284.88;;;6.92;40.08
76108;BME280;64834;52.516;10.528;2023-03-01T12:39:07;102269.09;;;6.99;40.04
76108;BME280;64834;52.516;10.528;2023-03-01T12:47:02;102264.72;;;7.17;40.94
76108;BME280;64834;52.516;10.528;2023-03-01T12:49:43;102258.75;;;7.09;39.50
76108;BME280;64834;52.516;10.528;2023-03-01T12:54:41;102251.84;;;7.10;40.42
76108;BME280;64834;52.516;10.528;2023-03-01T12:58:04;102242.69;;;7.32;39.66
76108;BME280;64834;52.516;10.528;2023-03-01T13:00:28;102236.91;;;7.26;39.06
76108;BME280;64834;52.516;10.528;2023-03-01T13:03:09;102236.25;;;7.10;39.22
76108;BME280;64834;52.516;10.528;2023-03-01T13:08:21;102225.66;;;7.17;40.00
76108;BME280;64834;52.516;10.528;2023-03-01T13:11:02;102227.38;;;7.08;40.00
76108;BME280;64834;52.516;10.528;2023-03-01T13:13:29;102221.78;;;7.22;40.41
76108;BME280;64834;52.516;10.528;2023-03-01T13:15:55;102225.09;;;7.11;40.68
76108;BME280;64834;52.516;10.528;2023-03-01T13:20:54;102226.78;;;7.29;40.21
76108;BME280;64834;52.516;10.528;2023-03-01T13:28:38;102220.81;;;7.30;40.96
76108;BME280;64834;52.516;10.528;2023-03-01T13:31:11;102214.50;;;7.37;40.36
76108;BME280;64834;52.516;10.528;2023-03-01T13:33:59;102205.91;;;7.38;41.49
76108;BME280;64834;52.516;10.528;2023-03-01T13:46:49;102195.47;;;7.38;40.31
76108;BME280;64834;52.516;10.528;2023-03-01T13:49:21;102199.06;;;7.29;39.32
76108;BME280;64834;52.516;10.528;2023-03-01T13:51:48;102193.28;;;7.23;40.56
76108;BME280;64834;52.516;10.528;2023-03-01T13:54:16;102193.88;;;7.29;40.75
76108;BME280;64834;52.516;10.528;2023-03-01T13:56:46;102193.91;;;7.40;40.10
76108;BME280;64834;52.516;10.528;2023-03-01T13:59:14;102195.00;;;7.61;39.44
76108;BME280;64834;52.516;10.528;2023-03-01T14:01:41;102192.75;;;7.55;40.33
76108;BME280;64834;52.516;10.528;2023-03-01T14:06:48;102184.16;;;7.37;40.45
76108;BME280;64834;52.516;10.528;2023-03-01T14:09:25;102180.34;;;7.52;41.23
76108;BME280;64834;52.516;10.528;2023-03-01T14:14:41;102181.25;;;7.53;39.61